sensor_id;sensor_type;location;lat;lon;timestamp;temperature;humidity
42803;DHT22;28447;48.682;9.022;2023-04-24T04:00:31;9.20;99.90
42803;DHT22;28447;48.682;9.022;2023-04-24T04:02:57;9.20;99.90
42803;DHT22;28447;48.682;9.022;2023-04-24T04:05:23;9.30;99.90
42803;DHT22;28447;48.682;9.022;2023-04-24T04:07:48;9.30;99.90
42803;DHT22;28447;48.682;9.022;2023-04-24T04:10:14;9.30;99.90
42803;DHT22;28447;48.682;9.022;2023-04-24T04:12:40;9.40;99.90
42803;DHT22;28447;48.682;9.022;2023-04-24T04:15:06;9.30;99.90
42803;DHT22;28447;48.682;9.022;2023-04-24T04:17:32;9.40;99.90
42803;DHT22;28447;48.682;9.022;2023-04-24T04:19:58;9.30;99.90
42803;DHT22;28447;48.682;9.022;2023-04-24T04:22:23;9.40;99.90
42803;DHT22;28447;48.682;9.022;2023-04-24T04:24:49;9.40;99.90
42803;DHT22;28447;48.682;9.022;2023-04-24T04:27:16;9.40;99.90
42803;DHT22;28447;48.682;9.022;2023-04-24T04:29:41;9.40;99.90
42803;DHT22;28447;48.682;9.022;2023-04-24T04:32:08;8.90;99.90
42803;DHT22;28447;48.682;9.022;2023-04-24T04:34:33;8.60;99.90
42803;DHT22;28447;48.682;9.022;2023-04-24T04:36:59;8.50;99.90
42803;DHT22;28447;48.682;9.022;2023-04-24T04:39:27;8.30;99.90
42803;DHT22;28447;48.682;9.022;2023-04-24T04:41:53;8.30;99.90
42803;DHT22;28447;48.682;9.022;2023-04-24T04:44:19;8.30;99.90
42803;DHT22;28447;48.682;9.022;2023-04-24T04:46:45;8.30;99.90
42803;DHT22;28447;48.682;9.022;2023-04-24T04:49:10;8.20;99.90
42803;DHT22;28447;48.682;9.022;2023-04-24T04:51:36;8.20;99.90
42803;DHT22;28447;48.682;9.022;2023-04-24T04:54:02;8.20;99.90
42803;DHT22;28447;48.682;9.022;2023-04-24T04:56:27;8.10;99.90
42803;DHT22;28447;48.682;9.022;2023-04-24T04:58:53;8.20;99.90
42803;DHT22;28447;48.682;9.022;2023-04-24T05:01:19;8.20;99.90
42803;DHT22;28447;48.682;9.022;2023-04-24T05:03:44;8.20;99.90
42803;DHT22;28447;48.682;9.022;2023-04-24T05:06:10;8.10;99.90
42803;DHT22;28447;48.682;9.022;2023-04-24T05:08:36;8.20;99.90
42803;DHT22;28447;48.682;9.022;2023-04-24T05:11:01;8.20;99.90
42803;DHT22;28447;48.682;9.022;2023-04-24T05:13:27;8.20;99.90
42803;DHT22;28447;48.682;9.022;2023-04-24T05:15:53;8.20;99.90
42803;DHT22;28447;48.682;9.022;2023-04-24T05:18:18;8.20;99.90
42803;DHT22;28447;48.682;9.022;2023-04-24T05:20:44;8.20;99.90
42803;DHT22;28447;48.682;9.022;2023-04-24T05:23:10;8.20;99.90
42803;DHT22;28447;48.682;9.022;2023-04-24T05:25:37;8.20;99.90
42803;DHT22;28447;48.682;9.022;2023-04-24T05:28:04;8.30;99.90
42803;DHT22;28447;48.682;9.022;2023-04-24T05:30:30;8.30;99.90
42803;DHT22;28447;48.682;9.022;2023-04-24T05:32:56;8.40;99.90
42803;DHT22;28447;48.682;9.022;2023-04-24T05:35:21;8.40;99.90
42803;DHT22;28447;48.682;9.022;2023-04-24T05:37:47;8.40;99.90
42803;DHT22;28447;48.682;9.022;2023-04-24T05:40:13;8.40;99.90
42803;DHT22;28447;48.682;9.022;2023-04-24T05:42:38;8.50;99.90
42803;DHT22;28447;48.682;9.022;2023-04-24T05:45:04;8.50;99.90
42803;DHT22;28447;48.682;9.022;2023-04-24T05:47:30;8.50;99.90
42803;DHT22;28447;48.682;9.022;2023-04-24T05:49:56;8.50;99.90
42803;DHT22;28447;48.682;9.022;2023-04-24T05:52:22;8.50;99.90
42803;DHT22;28447;48.682;9.022;2023-04-24T05:54:47;8.50;99.90
42803;DHT22;28447;48.682;9.022;2023-04-24T05:57:13;8.40;99.90
42803;DHT22;28447;48.682;9.022;2023-04-24T05:59:40;8.40;99.90
42803;DHT22;28447;48.682;9.022;2023-04-24T06:02:06;8.50;99.90
42803;DHT22;28447;48.682;9.022;2023-04-24T06:04:32;8.40;99.90
42803;DHT22;28447;48.682;9.022;2023-04-24T06:06:58;8.40;99.90
42803;DHT22;28447;48.682;9.022;2023-04-24T06:09:24;8.40;99.90
42803;DHT22;28447;48.682;9.022;2023-04-24T06:11:50;8.50;99.90
42803;DHT22;28447;48.682;9.022;2023-04-24T06:14:18;8.60;99.90
42803;DHT22;28447;48.682;9.022;2023-04-24T06:16:44;8.90;99.90
42803;DHT22;28447;48.682;9.022;2023-04-24T06:19:10;9.10;99.90
42803;DHT22;28447;48.682;9.022;2023-04-24T06:21:35;9.20;99.90
42803;DHT22;28447;48.682;9.022;2023-04-24T06:24:01;9.60;99.90
42803;DHT22;28447;48.682;9.022;2023-04-24T06:26:27;9.70;99.90
42803;DHT22;28447;48.682;9.022;2023-04-24T06:28:53;10.10;99.90
42803;DHT22;28447;48.682;9.022;2023-04-24T06:31:20;10.20;99.90
42803;DHT22;28447;48.682;9.022;2023-04-24T06:33:45;10.00;99.90
42803;DHT22;28447;48.682;9.022;2023-04-24T06:36:12;10.10;99.90
42803;DHT22;28447;48.682;9.022;2023-04-24T06:38:38;10.10;99.90
42803;DHT22;28447;48.682;9.022;2023-04-24T06:41:03;10.00;99.90
42803;DHT22;28447;48.682;9.022;2023-04-24T06:43:33;10.10;99.90
42803;DHT22;28447;48.682;9.022;2023-04-24T06:46:00;10.40;99.90
42803;DHT22;28447;48.682;9.022;2023-04-24T06:48:26;10.90;99.90
42803;DHT22;28447;48.682;9.022;2023-04-24T06:50:52;10.70;99.90
42803;DHT22;28447;48.682;9.022;2023-04-24T06:53:18;10.80;99.90
42803;DHT22;28447;48.682;9.022;2023-04-24T06:55:43;10.60;99.90
42803;DHT22;28447;48.682;9.022;2023-04-24T06:58:11;10.70;99.90
42803;DHT22;28447;48.682;9.022;2023-04-24T07:00:37;10.40;99.90
42803;DHT22;28447;48.682;9.022;2023-04-24T07:03:04;10.30;99.90
42803;DHT22;28447;48.682;9.022;2023-04-24T07:05:32;10.00;99.90
42803;DHT22;28447;48.682;9.022;2023-04-24T07:08:00;9.80;99.90
42803;DHT22;28447;48.682;9.022;2023-04-24T07:10:26;9.90;99.90
42803;DHT22;28447;48.682;9.022;2023-04-24T07:12:54;9.80;99.90
42803;DHT22;28447;48.682;9.022;2023-04-24T07:15:19;9.50;99.90
42803;DHT22;28447;48.682;9.022;2023-04-24T07:17:46;9.20;99.90
42803;DHT22;28447;48.682;9.022;2023-04-24T07:20:11;9.10;99.90
42803;DHT22;28447;48.682;9.022;2023-04-24T07:22:37;9.20;99.90
42803;DHT22;28447;48.682;9.022;2023-04-24T07:25:04;9.50;99.90
42803;DHT22;28447;48.682;9.022;2023-04-24T07:27:30;9.50;99.90
42803;DHT22;28447;48.682;9.022;2023-04-24T07:29:56;9.60;99.90
42803;DHT22;28447;48.682;9.022;2023-04-24T07:32:21;10.10;99.90
42803;DHT22;28447;48.682;9.022;2023-04-24T07:34:47;10.60;99.90
42803;DHT22;28447;48.682;9.022;2023-04-24T07:37:13;10.70;99.90
42803;DHT22;28447;48.682;9.022;2023-04-24T07:39:38;11.10;99.90
42803;DHT22;28447;48.682;9.022;2023-04-24T07:42:04;11.10;99.90
42803;DHT22;28447;48.682;9.022;2023-04-24T07:44:30;11.10;99.90
42803;DHT22;28447;48.682;9.022;2023-04-24T07:46:56;11.00;99.90
42803;DHT22;28447;48.682;9.022;2023-04-24T07:49:21;11.60;99.90
42803;DHT22;28447;48.682;9.022;2023-04-24T07:51:47;11.20;99.90
42803;DHT22;28447;48.682;9.022;2023-04-24T07:54:13;10.60;99.90
42803;DHT22;28447;48.682;9.022;2023-04-24T07:56:38;10.30;99.90
42803;DHT22;28447;48.682;9.022;2023-04-24T07:59:05;10.40;99.90
42803;DHT22;28447;48.682;9.022;2023-04-24T08:01:30;10.40;99.90
42803;DHT22;28447;48.682;9.022;2023-04-24T08:03:56;10.50;99.90
42803;DHT22;28447;48.682;9.022;2023-04-24T08:06:22;10.80;99.90
42803;DHT22;28447;48.682;9.022;2023-04-24T08:08:48;10.60;99.90
42803;DHT22;28447;48.682;9.022;2023-04-24T08:11:13;10.70;99.90
42803;DHT22;28447;48.682;9.022;2023-04-24T08:13:39;10.50;99.90
42803;DHT22;28447;48.682;9.022;2023-04-24T08:16:05;10.50;99.90
42803;DHT22;28447;48.682;9.022;2023-04-24T08:18:30;10.50;99.90
42803;DHT22;28447;48.682;9.022;2023-04-24T08:20:56;10.70;99.90
42803;DHT22;28447;48.682;9.022;2023-04-24T08:23:26;10.60;99.90
42803;DHT22;28447;48.682;9.022;2023-04-24T08:25:52;11.20;99.90
42803;DHT22;28447;48.682;9.022;2023-04-24T08:28:18;11.10;99.90
42803;DHT22;28447;48.682;9.022;2023-04-24T08:30:46;11.30;99.90
42803;DHT22;28447;48.682;9.022;2023-04-24T08:33:13;11.40;99.90
42803;DHT22;28447;48.682;9.022;2023-04-24T08:35:40;11.60;99.90
42803;DHT22;28447;48.682;9.022;2023-04-24T08:38:06;11.80;99.90
42803;DHT22;28447;48.682;9.022;2023-04-24T08:40:34;11.10;99.90
42803;DHT22;28447;48.682;9.022;2023-04-24T08:43:00;11.30;99.90
42803;DHT22;28447;48.682;9.022;2023-04-24T08:45:26;10.60;99.90
42803;DHT22;28447;48.682;9.022;2023-04-24T08:47:54;10.70;99.90
42803;DHT22;28447;48.682;9.022;2023-04-24T08:50:22;10.70;99.90
42803;DHT22;28447;48.682;9.022;2023-04-24T08:52:50;10.70;99.90
42803;DHT22;28447;48.682;9.022;2023-04-24T08:55:19;10.30;99.90
42803;DHT22;28447;48.682;9.022;2023-04-24T08:57:48;10.40;99.90
42803;DHT22;28447;48.682;9.022;2023-04-24T09:00:15;10.90;99.90
42803;DHT22;28447;48.682;9.022;2023-04-24T09:02:42;11.10;99.90
42803;DHT22;28447;48.682;9.022;2023-04-24T09:05:09;11.00;99.90
42803;DHT22;28447;48.682;9.022;2023-04-24T09:07:36;11.10;99.90
42803;DHT22;28447;48.682;9.022;2023-04-24T09:10:05;10.70;99.90
42803;DHT22;28447;48.682;9.022;2023-04-24T09:12:32;10.90;99.90
42803;DHT22;28447;48.682;9.022;2023-04-24T09:15:00;10.60;99.90
42803;DHT22;28447;48.682;9.022;2023-04-24T09:17:26;10.70;99.90
42803;DHT22;28447;48.682;9.022;2023-04-24T09:19:53;11.40;99.90
42803;DHT22;28447;48.682;9.022;2023-04-24T09:22:20;11.80;99.90
42803;DHT22;28447;48.682;9.022;2023-04-24T09:24:46;12.10;99.90
42803;DHT22;28447;48.682;9.022;2023-04-24T09:27:12;11.50;99.90
42803;DHT22;28447;48.682;9.022;2023-04-24T09:29:56;12.00;99.90
42803;DHT22;28447;48.682;9.022;2023-04-24T09:32:23;12.60;99.90
42803;DHT22;28447;48.682;9.022;2023-04-24T09:35:12;13.30;99.90
42803;DHT22;28447;48.682;9.022;2023-04-24T09:37:43;13.70;99.90
42803;DHT22;28447;48.682;9.022;2023-04-24T09:40:15;14.20;99.90
42803;DHT22;28447;48.682;9.022;2023-04-24T09:42:46;12.20;99.90
42803;DHT22;28447;48.682;9.022;2023-04-24T09:45:12;12.20;99.90
42803;DHT22;28447;48.682;9.022;2023-04-24T09:47:41;12.40;99.90
42803;DHT22;28447;48.682;9.022;2023-04-24T09:50:15;12.10;99.90
42803;DHT22;28447;48.682;9.022;2023-04-24T09:52:42;12.50;99.90
42803;DHT22;28447;48.682;9.022;2023-04-24T09:55:18;11.50;99.90
42803;DHT22;28447;48.682;9.022;2023-04-24T09:58:02;11.30;99.90
42803;DHT22;28447;48.682;9.022;2023-04-24T10:00:33;11.20;99.90
42803;DHT22;28447;48.682;9.022;2023-04-24T10:03:00;11.60;99.90
42803;DHT22;28447;48.682;9.022;2023-04-24T10:05:31;12.40;99.90
42803;DHT22;28447;48.682;9.022;2023-04-24T10:08:08;12.50;99.90
42803;DHT22;28447;48.682;9.022;2023-04-24T10:10:42;13.20;99.90
42803;DHT22;28447;48.682;9.022;2023-04-24T10:13:09;13.60;99.90
42803;DHT22;28447;48.682;9.022;2023-04-24T10:15:36;13.00;99.90
42803;DHT22;28447;48.682;9.022;2023-04-24T10:18:04;13.80;99.90
42803;DHT22;28447;48.682;9.022;2023-04-24T10:20:30;13.10;99.90
42803;DHT22;28447;48.682;9.022;2023-04-24T10:22:57;12.70;99.90
42803;DHT22;28447;48.682;9.022;2023-04-24T10:25:28;12.20;99.90
42803;DHT22;28447;48.682;9.022;2023-04-24T10:27:55;12.30;99.90
42803;DHT22;28447;48.682;9.022;2023-04-24T10:30:34;11.70;99.90
42803;DHT22;28447;48.682;9.022;2023-04-24T10:33:01;11.60;99.90
42803;DHT22;28447;48.682;9.022;2023-04-24T10:35:40;11.80;99.90
42803;DHT22;28447;48.682;9.022;2023-04-24T10:38:11;11.80;99.90
42803;DHT22;28447;48.682;9.022;2023-04-24T10:40:37;12.00;99.90
42803;DHT22;28447;48.682;9.022;2023-04-24T10:43:07;11.90;99.90
42803;DHT22;28447;48.682;9.022;2023-04-24T10:45:35;12.00;99.90
42803;DHT22;28447;48.682;9.022;2023-04-24T10:48:04;12.10;99.90
42803;DHT22;28447;48.682;9.022;2023-04-24T10:50:53;11.90;99.90
42803;DHT22;28447;48.682;9.022;2023-04-24T11:31:36;11.00;99.90
42803;DHT22;28447;48.682;9.022;2023-04-24T11:48:54;10.80;99.90
42803;DHT22;28447;48.682;9.022;2023-04-24T11:51:19;11.20;99.90
42803;DHT22;28447;48.682;9.022;2023-04-24T11:53:45;11.40;99.90
42803;DHT22;28447;48.682;9.022;2023-04-24T11:56:10;12.00;99.90
42803;DHT22;28447;48.682;9.022;2023-04-24T11:58:38;11.30;99.90
42803;DHT22;28447;48.682;9.022;2023-04-24T12:01:04;11.20;99.90
42803;DHT22;28447;48.682;9.022;2023-04-24T12:03:31;10.90;99.90
42803;DHT22;28447;48.682;9.022;2023-04-24T12:08:33;11.00;99.90
42803;DHT22;28447;48.682;9.022;2023-04-24T12:11:03;10.90;99.90
42803;DHT22;28447;48.682;9.022;2023-04-24T12:13:30;10.60;99.90
42803;DHT22;28447;48.682;9.022;2023-04-24T12:16:00;10.70;99.90
42803;DHT22;28447;48.682;9.022;2023-04-24T12:18:27;10.60;99.90
42803;DHT22;28447;48.682;9.022;2023-04-24T12:20:52;10.90;99.90
42803;DHT22;28447;48.682;9.022;2023-04-24T12:23:33;11.20;99.90
42803;DHT22;28447;48.682;9.022;2023-04-24T12:26:03;11.80;99.90
42803;DHT22;28447;48.682;9.022;2023-04-24T12:28:35;11.90;99.90
42803;DHT22;28447;48.682;9.022;2023-04-24T12:31:01;12.10;99.90
42803;DHT22;28447;48.682;9.022;2023-04-24T12:33:27;12.10;99.90
42803;DHT22;28447;48.682;9.022;2023-04-24T12:35:53;11.70;99.90
42803;DHT22;28447;48.682;9.022;2023-04-24T12:38:22;11.80;99.90
42803;DHT22;28447;48.682;9.022;2023-04-24T12:41:01;12.50;99.90
42803;DHT22;28447;48.682;9.022;2023-04-24T12:43:28;12.10;99.90
42803;DHT22;28447;48.682;9.022;2023-04-24T12:45:53;12.20;99.90
42803;DHT22;28447;48.682;9.022;2023-04-24T12:48:19;11.40;99.90
42803;DHT22;28447;48.682;9.022;2023-04-24T12:50:46;11.40;99.90
42803;DHT22;28447;48.682;9.022;2023-04-24T12:53:12;11.10;99.90
42803;DHT22;28447;48.682;9.022;2023-04-24T12:55:37;10.80;99.90
42803;DHT22;28447;48.682;9.022;2023-04-24T12:58:03;10.90;99.90
42803;DHT22;28447;48.682;9.022;2023-04-24T13:00:29;10.70;99.90
42803;DHT22;28447;48.682;9.022;2023-04-24T13:02:55;10.90;99.90
42803;DHT22;28447;48.682;9.022;2023-04-24T13:05:20;10.60;99.90
42803;DHT22;28447;48.682;9.022;2023-04-24T13:07:46;10.80;99.90
42803;DHT22;28447;48.682;9.022;2023-04-24T13:10:12;10.70;99.90
42803;DHT22;28447;48.682;9.022;2023-04-24T13:12:38;10.70;99.90
42803;DHT22;28447;48.682;9.022;2023-04-24T13:15:05;10.80;99.90
42803;DHT22;28447;48.682;9.022;2023-04-24T13:17:31;11.30;99.90
42803;DHT22;28447;48.682;9.022;2023-04-24T13:19:56;11.10;99.90
42803;DHT22;28447;48.682;9.022;2023-04-24T13:22:22;11.20;99.90
42803;DHT22;28447;48.682;9.022;2023-04-24T13:24:48;11.00;99.90
42803;DHT22;28447;48.682;9.022;2023-04-24T13:27:15;10.70;99.90
42803;DHT22;28447;48.682;9.022;2023-04-24T13:29:41;10.30;99.90
42803;DHT22;28447;48.682;9.022;2023-04-24T13:32:07;10.10;99.90
42803;DHT22;28447;48.682;9.022;2023-04-24T13:34:32;10.20;99.90
42803;DHT22;28447;48.682;9.022;2023-04-24T13:36:59;10.30;99.90
42803;DHT22;28447;48.682;9.022;2023-04-24T13:39:26;10.20;99.90
42803;DHT22;28447;48.682;9.022;2023-04-24T13:41:52;10.10;99.90
42803;DHT22;28447;48.682;9.022;2023-04-24T13:44:19;10.10;99.90
42803;DHT22;28447;48.682;9.022;2023-04-24T13:46:46;10.00;99.90
42803;DHT22;28447;48.682;9.022;2023-04-24T13:49:13;10.60;99.90
42803;DHT22;28447;48.682;9.022;2023-04-24T13:51:39;11.00;99.90
42803;DHT22;28447;48.682;9.022;2023-04-24T13:54:05;11.20;99.90
42803;DHT22;28447;48.682;9.022;2023-04-24T13:56:31;10.70;99.90
42803;DHT22;28447;48.682;9.022;2023-04-24T13:58:56;10.60;99.90
42803;DHT22;28447;48.682;9.022;2023-04-24T14:01:23;10.60;99.90
42803;DHT22;28447;48.682;9.022;2023-04-24T14:03:53;10.80;99.90
42803;DHT22;28447;48.682;9.022;2023-04-24T14:06:19;11.00;99.90
42803;DHT22;28447;48.682;9.022;2023-04-24T14:08:46;10.80;99.90
42803;DHT22;28447;48.682;9.022;2023-04-24T14:11:11;10.60;99.90
42803;DHT22;28447;48.682;9.022;2023-04-24T14:13:38;10.50;99.90
42803;DHT22;28447;48.682;9.022;2023-04-24T14:40:28;10.80;99.90
42803;DHT22;28447;48.682;9.022;2023-04-24T14:42:54;10.90;99.90
42803;DHT22;28447;48.682;9.022;2023-04-24T14:45:19;11.00;99.90
42803;DHT22;28447;48.682;9.022;2023-04-24T14:47:45;11.80;99.90
42803;DHT22;28447;48.682;9.022;2023-04-24T14:50:11;11.80;99.90
42803;DHT22;28447;48.682;9.022;2023-04-24T14:52:38;12.60;99.90
42803;DHT22;28447;48.682;9.022;2023-04-24T14:55:04;11.70;99.90
42803;DHT22;28447;48.682;9.022;2023-04-24T14:57:30;11.50;99.90
42803;DHT22;28447;48.682;9.022;2023-04-24T14:59:56;11.30;99.90
42803;DHT22;28447;48.682;9.022;2023-04-24T15:02:21;11.00;99.90
42803;DHT22;28447;48.682;9.022;2023-04-24T15:04:47;11.40;99.90
42803;DHT22;28447;48.682;9.022;2023-04-24T15:07:13;11.50;99.90
42803;DHT22;28447;48.682;9.022;2023-04-24T15:09:38;10.80;99.90
42803;DHT22;28447;48.682;9.022;2023-04-24T15:12:04;10.60;99.90
42803;DHT22;28447;48.682;9.022;2023-04-24T15:14:29;10.70;99.90
42803;DHT22;28447;48.682;9.022;2023-04-24T15:16:55;10.80;99.90
42803;DHT22;28447;48.682;9.022;2023-04-24T15:19:21;10.50;99.90
42803;DHT22;28447;48.682;9.022;2023-04-24T15:21:47;10.40;99.90
42803;DHT22;28447;48.682;9.022;2023-04-24T15:24:12;10.30;99.90
42803;DHT22;28447;48.682;9.022;2023-04-24T15:26:38;10.40;99.90
42803;DHT22;28447;48.682;9.022;2023-04-24T15:29:04;10.50;99.90
42803;DHT22;28447;48.682;9.022;2023-04-24T15:31:29;10.60;99.90
42803;DHT22;28447;48.682;9.022;2023-04-24T15:33:55;10.50;99.90
42803;DHT22;28447;48.682;9.022;2023-04-24T15:36:21;10.40;99.90
42803;DHT22;28447;48.682;9.022;2023-04-24T15:38:47;10.50;99.90
42803;DHT22;28447;48.682;9.022;2023-04-24T15:41:12;10.40;99.90
42803;DHT22;28447;48.682;9.022;2023-04-24T15:43:38;10.50;99.90
42803;DHT22;28447;48.682;9.022;2023-04-24T15:46:06;10.60;99.90
42803;DHT22;28447;48.682;9.022;2023-04-24T15:48:32;10.50;99.90
42803;DHT22;28447;48.682;9.022;2023-04-24T15:50:58;10.60;99.90
42803;DHT22;28447;48.682;9.022;2023-04-24T15:53:27;10.70;99.90
42803;DHT22;28447;48.682;9.022;2023-04-24T15:55:54;11.30;99.90
42803;DHT22;28447;48.682;9.022;2023-04-24T15:58:21;12.90;99.90
42803;DHT22;28447;48.682;9.022;2023-04-24T16:00:48;12.90;99.90
42803;DHT22;28447;48.682;9.022;2023-04-24T16:03:13;13.00;99.90
42803;DHT22;28447;48.682;9.022;2023-04-24T16:05:40;12.60;99.90
42803;DHT22;28447;48.682;9.022;2023-04-24T16:08:06;12.20;99.90
42803;DHT22;28447;48.682;9.022;2023-04-24T16:10:32;11.90;99.90
42803;DHT22;28447;48.682;9.022;2023-04-24T16:12:58;11.60;99.90
42803;DHT22;28447;48.682;9.022;2023-04-24T16:15:25;11.60;99.90
42803;DHT22;28447;48.682;9.022;2023-04-24T16:17:51;11.40;99.90
42803;DHT22;28447;48.682;9.022;2023-04-24T16:20:17;11.30;99.90
42803;DHT22;28447;48.682;9.022;2023-04-24T16:22:42;11.70;99.90
42803;DHT22;28447;48.682;9.022;2023-04-24T16:25:08;12.10;99.90
42803;DHT22;28447;48.682;9.022;2023-04-24T16:27:35;11.60;99.90
42803;DHT22;28447;48.682;9.022;2023-04-24T16:30:02;11.70;99.90
42803;DHT22;28447;48.682;9.022;2023-04-24T16:32:28;11.50;99.90
42803;DHT22;28447;48.682;9.022;2023-04-24T16:34:53;11.50;99.90
42803;DHT22;28447;48.682;9.022;2023-04-24T16:37:19;11.40;99.90
42803;DHT22;28447;48.682;9.022;2023-04-24T16:39:46;11.10;99.90
42803;DHT22;28447;48.682;9.022;2023-04-24T16:42:12;10.90;99.90
42803;DHT22;28447;48.682;9.022;2023-04-24T16:44:38;11.10;99.90
42803;DHT22;28447;48.682;9.022;2023-04-24T16:47:06;11.00;99.90
42803;DHT22;28447;48.682;9.022;2023-04-24T16:49:32;11.20;99.90
42803;DHT22;28447;48.682;9.022;2023-04-24T16:51:58;11.60;99.90
42803;DHT22;28447;48.682;9.022;2023-04-24T16:54:24;12.00;99.90
42803;DHT22;28447;48.682;9.022;2023-04-24T16:56:51;12.30;99.90
42803;DHT22;28447;48.682;9.022;2023-04-24T16:59:17;11.70;99.90
42803;DHT22;28447;48.682;9.022;2023-04-24T17:01:42;11.60;99.90
42803;DHT22;28447;48.682;9.022;2023-04-24T17:04:08;11.60;99.90
42803;DHT22;28447;48.682;9.022;2023-04-24T17:06:34;12.00;99.90
42803;DHT22;28447;48.682;9.022;2023-04-24T17:09:00;11.80;99.90
42803;DHT22;28447;48.682;9.022;2023-04-24T17:11:26;11.80;99.90
42803;DHT22;28447;48.682;9.022;2023-04-24T17:13:52;11.60;99.90
42803;DHT22;28447;48.682;9.022;2023-04-24T17:16:17;11.60;99.90
42803;DHT22;28447;48.682;9.022;2023-04-24T17:18:43;11.60;99.90
42803;DHT22;28447;48.682;9.022;2023-04-24T17:21:09;11.50;99.90
42803;DHT22;28447;48.682;9.022;2023-04-24T17:23:34;11.50;99.90
42803;DHT22;28447;48.682;9.022;2023-04-24T17:26:00;11.40;99.90
42803;DHT22;28447;48.682;9.022;2023-04-24T17:28:28;11.20;99.90
42803;DHT22;28447;48.682;9.022;2023-04-24T17:30:55;11.20;99.90
42803;DHT22;28447;48.682;9.022;2023-04-24T17:33:31;11.30;99.90
42803;DHT22;28447;48.682;9.022;2023-04-24T17:35:58;11.00;99.90
42803;DHT22;28447;48.682;9.022;2023-04-24T17:38:29;11.00;99.90
42803;DHT22;28447;48.682;9.022;2023-04-24T17:40:55;10.90;99.90
42803;DHT22;28447;48.682;9.022;2023-04-24T17:43:22;10.80;99.90
42803;DHT22;28447;48.682;9.022;2023-04-24T17:45:50;10.80;99.90
42803;DHT22;28447;48.682;9.022;2023-04-24T17:48:17;10.80;99.90
42803;DHT22;28447;48.682;9.022;2023-04-24T17:50:44;10.70;99.90
42803;DHT22;28447;48.682;9.022;2023-04-24T17:53:10;10.60;99.90
42803;DHT22;28447;48.682;9.022;2023-04-24T17:55:37;10.60;99.90
42803;DHT22;28447;48.682;9.022;2023-04-24T17:58:03;10.50;99.90
42803;DHT22;28447;48.682;9.022;2023-04-24T18:00:30;10.50;99.90
42803;DHT22;28447;48.682;9.022;2023-04-24T18:02:56;10.40;99.90
42803;DHT22;28447;48.682;9.022;2023-04-24T18:05:26;10.30;99.90
42803;DHT22;28447;48.682;9.022;2023-04-24T18:07:52;10.20;99.90
42803;DHT22;28447;48.682;9.022;2023-04-24T18:10:18;10.20;99.90
42803;DHT22;28447;48.682;9.022;2023-04-24T18:12:44;10.10;99.90
42803;DHT22;28447;48.682;9.022;2023-04-24T18:15:10;10.10;99.90
42803;DHT22;28447;48.682;9.022;2023-04-24T18:17:35;10.00;99.90
42803;DHT22;28447;48.682;9.022;2023-04-24T18:20:01;9.90;99.90
42803;DHT22;28447;48.682;9.022;2023-04-24T18:22:28;9.90;99.90
42803;DHT22;28447;48.682;9.022;2023-04-24T18:24:54;9.90;99.90
42803;DHT22;28447;48.682;9.022;2023-04-24T18:27:19;9.80;99.90
42803;DHT22;28447;48.682;9.022;2023-04-24T18:29:45;9.80;99.90
42803;DHT22;28447;48.682;9.022;2023-04-24T18:32:10;9.80;99.90
42803;DHT22;28447;48.682;9.022;2023-04-24T18:34:36;9.80;99.90
42803;DHT22;28447;48.682;9.022;2023-04-24T18:37:02;9.70;99.90
42803;DHT22;28447;48.682;9.022;2023-04-24T18:39:27;9.70;99.90
42803;DHT22;28447;48.682;9.022;2023-04-24T18:41:53;9.70;99.90
42803;DHT22;28447;48.682;9.022;2023-04-24T18:44:22;9.70;99.90
42803;DHT22;28447;48.682;9.022;2023-04-24T18:46:48;9.60;99.90
42803;DHT22;28447;48.682;9.022;2023-04-24T18:49:13;9.60;99.90
42803;DHT22;28447;48.682;9.022;2023-04-24T18:51:39;9.50;99.90
42803;DHT22;28447;48.682;9.022;2023-04-24T18:54:05;9.50;99.90
42803;DHT22;28447;48.682;9.022;2023-04-24T18:56:30;9.50;99.90
42803;DHT22;28447;48.682;9.022;2023-04-24T18:58:56;9.40;99.90
42803;DHT22;28447;48.682;9.022;2023-04-24T19:01:21;9.40;99.90
42803;DHT22;28447;48.682;9.022;2023-04-24T19:03:47;9.30;99.90
42803;DHT22;28447;48.682;9.022;2023-04-24T20:19:33;7.60;99.90
42803;DHT22;28447;48.682;9.022;2023-04-24T20:21:59;7.60;99.90
42803;DHT22;28447;48.682;9.022;2023-04-24T20:24:25;7.60;99.90
42803;DHT22;28447;48.682;9.022;2023-04-24T20:26:50;7.60;99.90
42803;DHT22;28447;48.682;9.022;2023-04-24T20:29:16;7.50;99.90
42803;DHT22;28447;48.682;9.022;2023-04-24T20:31:42;7.50;99.90
42803;DHT22;28447;48.682;9.022;2023-04-24T20:34:07;7.60;99.90
42803;DHT22;28447;48.682;9.022;2023-04-24T20:36:33;7.70;99.90
42803;DHT22;28447;48.682;9.022;2023-04-24T20:38:59;7.70;99.90
42803;DHT22;28447;48.682;9.022;2023-04-24T20:41:25;7.70;99.90
42803;DHT22;28447;48.682;9.022;2023-04-24T20:43:52;7.70;99.90
42803;DHT22;28447;48.682;9.022;2023-04-24T20:46:18;7.80;99.90
42803;DHT22;28447;48.682;9.022;2023-04-24T20:48:43;7.80;99.90
42803;DHT22;28447;48.682;9.022;2023-04-24T20:51:09;7.90;99.90
42803;DHT22;28447;48.682;9.022;2023-04-24T20:53:34;7.80;99.90
42803;DHT22;28447;48.682;9.022;2023-04-24T20:56:00;7.80;99.90
42803;DHT22;28447;48.682;9.022;2023-04-24T20:58:26;7.80;99.90
42803;DHT22;28447;48.682;9.022;2023-04-24T21:00:52;7.80;99.90
42803;DHT22;28447;48.682;9.022;2023-04-24T21:03:17;7.80;99.90
42803;DHT22;28447;48.682;9.022;2023-04-24T21:05:43;7.80;99.90
42803;DHT22;28447;48.682;9.022;2023-04-24T21:08:09;7.80;99.90
42803;DHT22;28447;48.682;9.022;2023-04-24T21:10:34;7.90;99.90
42803;DHT22;28447;48.682;9.022;2023-04-24T21:13:00;7.90;99.90
42803;DHT22;28447;48.682;9.022;2023-04-24T21:15:26;7.90;99.90
42803;DHT22;28447;48.682;9.022;2023-04-24T21:17:52;7.90;99.90
42803;DHT22;28447;48.682;9.022;2023-04-24T21:20:18;7.90;99.90
42803;DHT22;28447;48.682;9.022;2023-04-24T21:22:44;7.90;99.90
42803;DHT22;28447;48.682;9.022;2023-04-24T21:25:10;7.90;99.90
42803;DHT22;28447;48.682;9.022;2023-04-24T21:27:35;7.90;99.90
42803;DHT22;28447;48.682;9.022;2023-04-24T21:30:05;8.00;99.90
42803;DHT22;28447;48.682;9.022;2023-04-24T21:32:31;8.10;99.90
42803;DHT22;28447;48.682;9.022;2023-04-24T21:34:57;8.10;99.90
42803;DHT22;28447;48.682;9.022;2023-04-24T21:37:24;8.10;99.90
42803;DHT22;28447;48.682;9.022;2023-04-24T21:39:50;8.10;99.90
42803;DHT22;28447;48.682;9.022;2023-04-24T21:42:15;8.10;99.90
42803;DHT22;28447;48.682;9.022;2023-04-24T21:44:41;8.20;99.90
42803;DHT22;28447;48.682;9.022;2023-04-24T21:47:07;8.20;99.90
42803;DHT22;28447;48.682;9.022;2023-04-24T21:49:32;8.20;99.90
42803;DHT22;28447;48.682;9.022;2023-04-24T21:51:58;8.20;99.90
42803;DHT22;28447;48.682;9.022;2023-04-24T21:54:24;8.20;99.90
42803;DHT22;28447;48.682;9.022;2023-04-24T21:56:49;8.20;99.90
